sensor_id;sensor_type;location;lat;lon;timestamp;temperature;humidity
39919;DHT22;25589;51.552;13.424;2023-12-20T00:00:37;6.90;99.90
39919;DHT22;25589;51.552;13.424;2023-12-20T00:03:03;6.80;99.90
39919;DHT22;25589;51.552;13.424;2023-12-20T00:05:29;6.80;99.90
39919;DHT22;25589;51.552;13.424;2023-12-20T00:07:57;7.10;99.90
39919;DHT22;25589;51.552;13.424;2023-12-20T00:10:23;6.80;99.90
39919;DHT22;25589;51.552;13.424;2023-12-20T00:12:48;6.80;99.90
39919;DHT22;25589;51.552;13.424;2023-12-20T00:15:14;6.80;99.90
39919;DHT22;25589;51.552;13.424;2023-12-20T00:17:40;6.40;99.90
39919;DHT22;25589;51.552;13.424;2023-12-20T00:20:06;6.90;99.90
39919;DHT22;25589;51.552;13.424;2023-12-20T00:22:33;6.80;99.90
39919;DHT22;25589;51.552;13.424;2023-12-20T00:24:59;6.90;99.90
39919;DHT22;25589;51.552;13.424;2023-12-20T00:27:24;6.70;99.90
39919;DHT22;25589;51.552;13.424;2023-12-20T00:29:50;6.10;99.90
39919;DHT22;25589;51.552;13.424;2023-12-20T00:32:16;6.80;99.90
39919;DHT22;25589;51.552;13.424;2023-12-20T00:34:42;6.80;99.90
39919;DHT22;25589;51.552;13.424;2023-12-20T00:37:08;7.10;99.90
39919;DHT22;25589;51.552;13.424;2023-12-20T00:39:34;7.20;99.90
39919;DHT22;25589;51.552;13.424;2023-12-20T00:41:59;7.10;99.90
39919;DHT22;25589;51.552;13.424;2023-12-20T00:44:25;6.90;99.90
39919;DHT22;25589;51.552;13.424;2023-12-20T00:46:51;6.80;99.90
39919;DHT22;25589;51.552;13.424;2023-12-20T00:49:17;6.80;99.90
39919;DHT22;25589;51.552;13.424;2023-12-20T00:51:42;6.70;99.90
39919;DHT22;25589;51.552;13.424;2023-12-20T00:54:08;6.70;99.90
39919;DHT22;25589;51.552;13.424;2023-12-20T00:56:34;6.20;99.90
39919;DHT22;25589;51.552;13.424;2023-12-20T00:59:00;6.70;99.90
39919;DHT22;25589;51.552;13.424;2023-12-20T01:01:26;6.70;99.90
39919;DHT22;25589;51.552;13.424;2023-12-20T01:03:51;6.80;99.90
39919;DHT22;25589;51.552;13.424;2023-12-20T01:06:18;6.40;99.90
39919;DHT22;25589;51.552;13.424;2023-12-20T01:08:43;6.70;99.90
39919;DHT22;25589;51.552;13.424;2023-12-20T01:11:09;6.50;99.90
39919;DHT22;25589;51.552;13.424;2023-12-20T01:13:35;7.80;99.90
39919;DHT22;25589;51.552;13.424;2023-12-20T01:16:00;6.80;99.90
39919;DHT22;25589;51.552;13.424;2023-12-20T01:18:26;6.10;99.90
39919;DHT22;25589;51.552;13.424;2023-12-20T01:23:18;7.00;99.90
39919;DHT22;25589;51.552;13.424;2023-12-20T01:25:43;7.40;99.90
39919;DHT22;25589;51.552;13.424;2023-12-20T01:28:09;6.40;99.90
39919;DHT22;25589;51.552;13.424;2023-12-20T01:30:35;7.20;99.90
39919;DHT22;25589;51.552;13.424;2023-12-20T01:33:00;6.80;99.90
39919;DHT22;25589;51.552;13.424;2023-12-20T01:35:26;6.70;99.90
39919;DHT22;25589;51.552;13.424;2023-12-20T01:37:52;6.60;99.90
39919;DHT22;25589;51.552;13.424;2023-12-20T01:40:22;6.50;99.90
39919;DHT22;25589;51.552;13.424;2023-12-20T01:42:47;8.00;99.90
39919;DHT22;25589;51.552;13.424;2023-12-20T01:45:13;6.10;99.90
39919;DHT22;25589;51.552;13.424;2023-12-20T01:47:39;6.60;99.90
39919;DHT22;25589;51.552;13.424;2023-12-20T01:50:06;6.40;99.90
39919;DHT22;25589;51.552;13.424;2023-12-20T01:52:34;6.80;99.90
39919;DHT22;25589;51.552;13.424;2023-12-20T01:54:59;6.30;99.90
39919;DHT22;25589;51.552;13.424;2023-12-20T01:57:28;6.30;99.90
39919;DHT22;25589;51.552;13.424;2023-12-20T01:59:54;6.40;99.90
39919;DHT22;25589;51.552;13.424;2023-12-20T02:02:20;7.40;99.90
39919;DHT22;25589;51.552;13.424;2023-12-20T02:04:45;5.60;99.90
39919;DHT22;25589;51.552;13.424;2023-12-20T02:07:11;6.30;99.90
39919;DHT22;25589;51.552;13.424;2023-12-20T02:09:37;6.00;99.90
39919;DHT22;25589;51.552;13.424;2023-12-20T02:12:03;6.60;99.90
39919;DHT22;25589;51.552;13.424;2023-12-20T02:14:29;6.60;99.90
39919;DHT22;25589;51.552;13.424;2023-12-20T02:16:55;6.80;99.90
39919;DHT22;25589;51.552;13.424;2023-12-20T02:19:21;6.30;99.90
39919;DHT22;25589;51.552;13.424;2023-12-20T02:21:46;6.60;99.90
39919;DHT22;25589;51.552;13.424;2023-12-20T02:24:12;6.60;99.90
39919;DHT22;25589;51.552;13.424;2023-12-20T02:26:38;7.30;99.90
39919;DHT22;25589;51.552;13.424;2023-12-20T02:29:04;5.90;99.90
39919;DHT22;25589;51.552;13.424;2023-12-20T02:31:29;6.50;99.90
39919;DHT22;25589;51.552;13.424;2023-12-20T02:33:55;6.50;99.90
39919;DHT22;25589;51.552;13.424;2023-12-20T02:36:21;6.60;99.90
39919;DHT22;25589;51.552;13.424;2023-12-20T02:38:46;6.50;99.90
39919;DHT22;25589;51.552;13.424;2023-12-20T02:41:12;6.50;99.90
39919;DHT22;25589;51.552;13.424;2023-12-20T02:43:38;4.40;99.90
39919;DHT22;25589;51.552;13.424;2023-12-20T02:46:03;6.80;99.90
39919;DHT22;25589;51.552;13.424;2023-12-20T02:48:29;6.60;99.90
39919;DHT22;25589;51.552;13.424;2023-12-20T02:50:54;6.50;99.90
39919;DHT22;25589;51.552;13.424;2023-12-20T02:53:20;6.50;99.90
39919;DHT22;25589;51.552;13.424;2023-12-20T02:55:46;5.90;99.90
39919;DHT22;25589;51.552;13.424;2023-12-20T02:58:11;6.90;99.90
39919;DHT22;25589;51.552;13.424;2023-12-20T03:00:37;7.10;99.90
39919;DHT22;25589;51.552;13.424;2023-12-20T03:03:02;6.60;99.90
39919;DHT22;25589;51.552;13.424;2023-12-20T03:07:54;6.60;99.90
39919;DHT22;25589;51.552;13.424;2023-12-20T03:10:20;6.70;99.90
39919;DHT22;25589;51.552;13.424;2023-12-20T03:12:45;6.80;99.90
39919;DHT22;25589;51.552;13.424;2023-12-20T03:15:11;6.50;99.90
39919;DHT22;25589;51.552;13.424;2023-12-20T03:17:36;7.10;99.90
39919;DHT22;25589;51.552;13.424;2023-12-20T03:20:02;6.60;99.90
39919;DHT22;25589;51.552;13.424;2023-12-20T03:22:28;7.00;99.90
39919;DHT22;25589;51.552;13.424;2023-12-20T03:24:53;7.30;99.90
39919;DHT22;25589;51.552;13.424;2023-12-20T03:27:19;6.30;99.90
39919;DHT22;25589;51.552;13.424;2023-12-20T03:29:44;6.60;99.90
39919;DHT22;25589;51.552;13.424;2023-12-20T03:32:10;6.60;99.90
39919;DHT22;25589;51.552;13.424;2023-12-20T03:34:35;6.90;99.90
39919;DHT22;25589;51.552;13.424;2023-12-20T03:37:01;6.90;99.90
39919;DHT22;25589;51.552;13.424;2023-12-20T03:39:26;6.60;99.90
39919;DHT22;25589;51.552;13.424;2023-12-20T03:41:52;7.00;99.90
39919;DHT22;25589;51.552;13.424;2023-12-20T03:44:18;7.30;99.90
39919;DHT22;25589;51.552;13.424;2023-12-20T03:46:43;6.70;99.90
39919;DHT22;25589;51.552;13.424;2023-12-20T03:49:11;6.60;99.90
39919;DHT22;25589;51.552;13.424;2023-12-20T03:51:36;7.10;99.90
39919;DHT22;25589;51.552;13.424;2023-12-20T03:54:02;6.10;99.90
39919;DHT22;25589;51.552;13.424;2023-12-20T03:56:28;6.60;99.90
39919;DHT22;25589;51.552;13.424;2023-12-20T03:58:54;6.60;99.90
39919;DHT22;25589;51.552;13.424;2023-12-20T04:01:19;8.10;99.90
39919;DHT22;25589;51.552;13.424;2023-12-20T04:03:45;6.60;99.90
39919;DHT22;25589;51.552;13.424;2023-12-20T04:06:15;7.10;99.90
39919;DHT22;25589;51.552;13.424;2023-12-20T04:08:41;6.60;99.90
39919;DHT22;25589;51.552;13.424;2023-12-20T04:11:07;7.20;99.90
39919;DHT22;25589;51.552;13.424;2023-12-20T04:13:32;6.50;99.90
39919;DHT22;25589;51.552;13.424;2023-12-20T04:15:58;6.90;99.90
39919;DHT22;25589;51.552;13.424;2023-12-20T04:18:23;6.60;99.90
39919;DHT22;25589;51.552;13.424;2023-12-20T04:20:49;6.60;99.90
39919;DHT22;25589;51.552;13.424;2023-12-20T04:23:15;7.40;99.90
39919;DHT22;25589;51.552;13.424;2023-12-20T04:25:40;5.80;99.90
39919;DHT22;25589;51.552;13.424;2023-12-20T04:28:06;6.50;99.90
39919;DHT22;25589;51.552;13.424;2023-12-20T04:30:31;6.50;99.90
39919;DHT22;25589;51.552;13.424;2023-12-20T04:32:57;6.50;99.90
39919;DHT22;25589;51.552;13.424;2023-12-20T04:35:23;6.50;99.90
39919;DHT22;25589;51.552;13.424;2023-12-20T04:37:48;6.20;99.90
39919;DHT22;25589;51.552;13.424;2023-12-20T04:40:15;6.00;99.90
39919;DHT22;25589;51.552;13.424;2023-12-20T04:42:40;6.40;99.90
39919;DHT22;25589;51.552;13.424;2023-12-20T04:45:06;6.50;99.90
39919;DHT22;25589;51.552;13.424;2023-12-20T04:47:32;6.90;99.90
39919;DHT22;25589;51.552;13.424;2023-12-20T04:49:57;6.50;99.90
39919;DHT22;25589;51.552;13.424;2023-12-20T04:52:23;6.90;99.90
39919;DHT22;25589;51.552;13.424;2023-12-20T04:54:48;6.40;99.90
39919;DHT22;25589;51.552;13.424;2023-12-20T04:57:14;6.40;99.90
39919;DHT22;25589;51.552;13.424;2023-12-20T04:59:40;6.30;99.90
39919;DHT22;25589;51.552;13.424;2023-12-20T05:02:06;6.20;99.90
39919;DHT22;25589;51.552;13.424;2023-12-20T05:04:32;6.40;99.90
39919;DHT22;25589;51.552;13.424;2023-12-20T05:06:58;6.40;99.90
39919;DHT22;25589;51.552;13.424;2023-12-20T05:09:23;6.40;99.90
39919;DHT22;25589;51.552;13.424;2023-12-20T05:11:49;6.50;99.90
39919;DHT22;25589;51.552;13.424;2023-12-20T05:14:14;6.50;99.90
39919;DHT22;25589;51.552;13.424;2023-12-20T05:16:40;6.50;99.90
39919;DHT22;25589;51.552;13.424;2023-12-20T05:19:06;6.30;99.90
39919;DHT22;25589;51.552;13.424;2023-12-20T05:21:32;6.60;99.90
39919;DHT22;25589;51.552;13.424;2023-12-20T05:23:58;6.60;99.90
39919;DHT22;25589;51.552;13.424;2023-12-20T05:26:24;6.50;99.90
39919;DHT22;25589;51.552;13.424;2023-12-20T05:28:49;7.40;99.90
39919;DHT22;25589;51.552;13.424;2023-12-20T05:31:15;6.40;99.90
39919;DHT22;25589;51.552;13.424;2023-12-20T05:33:40;6.50;99.90
39919;DHT22;25589;51.552;13.424;2023-12-20T05:36:06;6.50;99.90
39919;DHT22;25589;51.552;13.424;2023-12-20T05:38:36;6.50;99.90
39919;DHT22;25589;51.552;13.424;2023-12-20T05:41:02;6.50;99.90
39919;DHT22;25589;51.552;13.424;2023-12-20T05:43:27;7.20;99.90
39919;DHT22;25589;51.552;13.424;2023-12-20T05:45:53;6.50;99.90
39919;DHT22;25589;51.552;13.424;2023-12-20T05:48:19;6.40;99.90
39919;DHT22;25589;51.552;13.424;2023-12-20T05:50:44;6.50;99.90
39919;DHT22;25589;51.552;13.424;2023-12-20T05:53:10;6.40;99.90
39919;DHT22;25589;51.552;13.424;2023-12-20T05:55:35;6.50;99.90
39919;DHT22;25589;51.552;13.424;2023-12-20T05:58:01;6.90;99.90
39919;DHT22;25589;51.552;13.424;2023-12-20T06:00:26;6.80;99.90
39919;DHT22;25589;51.552;13.424;2023-12-20T06:05:18;6.30;99.90
39919;DHT22;25589;51.552;13.424;2023-12-20T06:07:45;6.30;99.90
39919;DHT22;25589;51.552;13.424;2023-12-20T06:10:13;6.30;99.90
39919;DHT22;25589;51.552;13.424;2023-12-20T06:12:39;6.40;99.90
39919;DHT22;25589;51.552;13.424;2023-12-20T06:15:05;6.30;99.90
39919;DHT22;25589;51.552;13.424;2023-12-20T06:17:31;6.40;99.90
39919;DHT22;25589;51.552;13.424;2023-12-20T06:19:57;6.20;99.90
39919;DHT22;25589;51.552;13.424;2023-12-20T06:22:23;6.20;99.90
39919;DHT22;25589;51.552;13.424;2023-12-20T06:24:48;6.20;99.90
39919;DHT22;25589;51.552;13.424;2023-12-20T06:27:14;6.90;99.90
39919;DHT22;25589;51.552;13.424;2023-12-20T06:29:39;5.30;99.90
39919;DHT22;25589;51.552;13.424;2023-12-20T06:32:06;6.40;99.90
39919;DHT22;25589;51.552;13.424;2023-12-20T06:34:32;6.10;99.90
39919;DHT22;25589;51.552;13.424;2023-12-20T06:36:57;6.10;99.90
39919;DHT22;25589;51.552;13.424;2023-12-20T06:39:23;6.20;99.90
39919;DHT22;25589;51.552;13.424;2023-12-20T06:41:48;6.80;99.90
39919;DHT22;25589;51.552;13.424;2023-12-20T06:44:14;6.00;99.90
39919;DHT22;25589;51.552;13.424;2023-12-20T06:46:40;5.60;99.90
39919;DHT22;25589;51.552;13.424;2023-12-20T06:49:06;5.70;99.90
39919;DHT22;25589;51.552;13.424;2023-12-20T06:51:31;5.70;99.90
39919;DHT22;25589;51.552;13.424;2023-12-20T06:53:57;6.00;99.90
39919;DHT22;25589;51.552;13.424;2023-12-20T06:56:22;6.40;99.90
39919;DHT22;25589;51.552;13.424;2023-12-20T06:58:48;6.00;99.90
39919;DHT22;25589;51.552;13.424;2023-12-20T07:01:14;5.70;99.90
39919;DHT22;25589;51.552;13.424;2023-12-20T07:03:40;5.90;99.90
39919;DHT22;25589;51.552;13.424;2023-12-20T07:06:07;6.40;99.90
39919;DHT22;25589;51.552;13.424;2023-12-20T07:08:33;5.90;99.90
39919;DHT22;25589;51.552;13.424;2023-12-20T07:10:58;6.30;99.90
39919;DHT22;25589;51.552;13.424;2023-12-20T07:13:24;5.80;99.90
39919;DHT22;25589;51.552;13.424;2023-12-20T07:15:50;6.30;99.90
39919;DHT22;25589;51.552;13.424;2023-12-20T07:18:16;5.80;99.90
39919;DHT22;25589;51.552;13.424;2023-12-20T07:20:41;5.80;99.90
39919;DHT22;25589;51.552;13.424;2023-12-20T07:23:08;5.90;99.90
39919;DHT22;25589;51.552;13.424;2023-12-20T07:25:34;6.50;99.90
39919;DHT22;25589;51.552;13.424;2023-12-20T07:27:59;6.40;99.90
39919;DHT22;25589;51.552;13.424;2023-12-20T07:30:25;5.80;99.90
39919;DHT22;25589;51.552;13.424;2023-12-20T07:32:51;6.30;99.90
39919;DHT22;25589;51.552;13.424;2023-12-20T07:35:17;5.80;99.90
39919;DHT22;25589;51.552;13.424;2023-12-20T07:37:43;6.00;99.90
39919;DHT22;25589;51.552;13.424;2023-12-20T07:40:10;5.90;99.90
39919;DHT22;25589;51.552;13.424;2023-12-20T07:42:36;6.10;99.90
39919;DHT22;25589;51.552;13.424;2023-12-20T07:45:01;6.10;99.90
39919;DHT22;25589;51.552;13.424;2023-12-20T07:47:27;6.20;99.90
39919;DHT22;25589;51.552;13.424;2023-12-20T07:49:53;6.30;99.90
39919;DHT22;25589;51.552;13.424;2023-12-20T07:52:19;7.20;99.90
39919;DHT22;25589;51.552;13.424;2023-12-20T07:54:45;5.50;99.90
39919;DHT22;25589;51.552;13.424;2023-12-20T07:59:37;6.50;99.90
39919;DHT22;25589;51.552;13.424;2023-12-20T08:02:03;6.60;99.90
39919;DHT22;25589;51.552;13.424;2023-12-20T08:04:28;6.60;99.90
39919;DHT22;25589;51.552;13.424;2023-12-20T08:06:54;7.10;99.90
39919;DHT22;25589;51.552;13.424;2023-12-20T08:09:20;6.70;99.90
39919;DHT22;25589;51.552;13.424;2023-12-20T08:11:47;7.40;99.90
39919;DHT22;25589;51.552;13.424;2023-12-20T08:14:13;6.70;99.90
39919;DHT22;25589;51.552;13.424;2023-12-20T08:16:38;6.70;99.90
39919;DHT22;25589;51.552;13.424;2023-12-20T08:19:04;7.40;99.90
39919;DHT22;25589;51.552;13.424;2023-12-20T08:21:30;6.60;99.90
39919;DHT22;25589;51.552;13.424;2023-12-20T08:23:55;6.60;99.90
39919;DHT22;25589;51.552;13.424;2023-12-20T08:26:21;6.60;99.90
39919;DHT22;25589;51.552;13.424;2023-12-20T08:28:48;6.30;99.90
39919;DHT22;25589;51.552;13.424;2023-12-20T08:31:15;7.20;99.90
39919;DHT22;25589;51.552;13.424;2023-12-20T08:33:43;6.60;99.90
39919;DHT22;25589;51.552;13.424;2023-12-20T08:36:09;6.70;99.90
39919;DHT22;25589;51.552;13.424;2023-12-20T08:38:35;7.10;99.90
39919;DHT22;25589;51.552;13.424;2023-12-20T08:41:00;6.70;99.90
39919;DHT22;25589;51.552;13.424;2023-12-20T08:43:27;6.90;99.90
39919;DHT22;25589;51.552;13.424;2023-12-20T08:45:52;6.40;99.90
39919;DHT22;25589;51.552;13.424;2023-12-20T08:48:18;6.80;99.90
39919;DHT22;25589;51.552;13.424;2023-12-20T08:50:43;7.40;99.90
39919;DHT22;25589;51.552;13.424;2023-12-20T08:53:09;6.70;99.90
39919;DHT22;25589;51.552;13.424;2023-12-20T08:55:35;6.80;99.90
39919;DHT22;25589;51.552;13.424;2023-12-20T08:58:00;7.20;99.90
39919;DHT22;25589;51.552;13.424;2023-12-20T09:00:26;7.20;99.90
39919;DHT22;25589;51.552;13.424;2023-12-20T09:02:53;6.80;99.90
39919;DHT22;25589;51.552;13.424;2023-12-20T09:05:20;6.80;99.90
39919;DHT22;25589;51.552;13.424;2023-12-20T09:07:45;6.80;99.90
39919;DHT22;25589;51.552;13.424;2023-12-20T09:10:11;6.90;99.90
39919;DHT22;25589;51.552;13.424;2023-12-20T09:12:36;6.90;99.90
39919;DHT22;25589;51.552;13.424;2023-12-20T09:15:05;6.90;99.90
39919;DHT22;25589;51.552;13.424;2023-12-20T09:17:31;7.60;99.90
39919;DHT22;25589;51.552;13.424;2023-12-20T09:19:56;6.90;99.90
39919;DHT22;25589;51.552;13.424;2023-12-20T09:22:22;6.90;99.90
39919;DHT22;25589;51.552;13.424;2023-12-20T09:24:48;7.20;99.90
39919;DHT22;25589;51.552;13.424;2023-12-20T09:27:14;7.10;99.90
39919;DHT22;25589;51.552;13.424;2023-12-20T09:29:40;7.00;99.90
39919;DHT22;25589;51.552;13.424;2023-12-20T09:32:05;7.20;99.90
39919;DHT22;25589;51.552;13.424;2023-12-20T09:34:31;7.00;99.90
39919;DHT22;25589;51.552;13.424;2023-12-20T09:36:56;7.10;99.90
39919;DHT22;25589;51.552;13.424;2023-12-20T09:39:22;7.50;99.90
39919;DHT22;25589;51.552;13.424;2023-12-20T09:42:01;6.60;99.90
39919;DHT22;25589;51.552;13.424;2023-12-20T09:44:27;7.10;99.90
39919;DHT22;25589;51.552;13.424;2023-12-20T09:49:20;7.10;99.90
39919;DHT22;25589;51.552;13.424;2023-12-20T09:51:47;7.20;99.90
39919;DHT22;25589;51.552;13.424;2023-12-20T09:54:17;7.30;99.90
39919;DHT22;25589;51.552;13.424;2023-12-20T09:56:43;7.20;99.90
39919;DHT22;25589;51.552;13.424;2023-12-20T09:59:09;7.30;99.90
39919;DHT22;25589;51.552;13.424;2023-12-20T10:01:35;7.30;99.90
39919;DHT22;25589;51.552;13.424;2023-12-20T10:04:06;7.50;99.90
39919;DHT22;25589;51.552;13.424;2023-12-20T10:06:43;7.80;99.90
39919;DHT22;25589;51.552;13.424;2023-12-20T10:09:10;7.40;99.90
39919;DHT22;25589;51.552;13.424;2023-12-20T10:11:37;7.40;99.90
39919;DHT22;25589;51.552;13.424;2023-12-20T10:18:56;6.30;99.90
39919;DHT22;25589;51.552;13.424;2023-12-20T10:21:23;5.90;99.90
39919;DHT22;25589;51.552;13.424;2023-12-20T10:23:50;7.40;99.90
39919;DHT22;25589;51.552;13.424;2023-12-20T10:26:23;7.60;99.90
39919;DHT22;25589;51.552;13.424;2023-12-20T10:28:56;7.20;99.90
39919;DHT22;25589;51.552;13.424;2023-12-20T10:31:27;7.50;99.90
39919;DHT22;25589;51.552;13.424;2023-12-20T10:33:53;7.50;99.90
39919;DHT22;25589;51.552;13.424;2023-12-20T10:36:19;7.70;99.90
39919;DHT22;25589;51.552;13.424;2023-12-20T10:38:44;7.70;99.90
39919;DHT22;25589;51.552;13.424;2023-12-20T10:41:11;7.50;99.90
39919;DHT22;25589;51.552;13.424;2023-12-20T10:43:38;7.50;99.90
39919;DHT22;25589;51.552;13.424;2023-12-20T10:46:05;7.50;99.90
39919;DHT22;25589;51.552;13.424;2023-12-20T10:50:58;7.70;99.90
39919;DHT22;25589;51.552;13.424;2023-12-20T10:53:25;6.90;99.90
39919;DHT22;25589;51.552;13.424;2023-12-20T10:55:52;7.70;99.90
39919;DHT22;25589;51.552;13.424;2023-12-20T10:58:20;7.70;99.90
39919;DHT22;25589;51.552;13.424;2023-12-20T11:00:50;7.70;99.90
39919;DHT22;25589;51.552;13.424;2023-12-20T11:03:19;7.70;99.90
39919;DHT22;25589;51.552;13.424;2023-12-20T11:05:53;7.80;99.90
39919;DHT22;25589;51.552;13.424;2023-12-20T11:08:48;8.10;99.90
39919;DHT22;25589;51.552;13.424;2023-12-20T11:11:29;7.70;99.90
39919;DHT22;25589;51.552;13.424;2023-12-20T11:14:07;9.10;99.90
39919;DHT22;25589;51.552;13.424;2023-12-20T11:16:37;8.00;99.90
39919;DHT22;25589;51.552;13.424;2023-12-20T11:19:05;8.30;99.90
39919;DHT22;25589;51.552;13.424;2023-12-20T11:21:31;8.10;99.90
39919;DHT22;25589;51.552;13.424;2023-12-20T11:23:56;7.60;99.90
39919;DHT22;25589;51.552;13.424;2023-12-20T11:28:49;8.00;99.90
39919;DHT22;25589;51.552;13.424;2023-12-20T11:31:15;8.00;99.90
39919;DHT22;25589;51.552;13.424;2023-12-20T11:33:41;7.40;99.90
39919;DHT22;25589;51.552;13.424;2023-12-20T11:36:14;7.70;99.90
39919;DHT22;25589;51.552;13.424;2023-12-20T11:38:57;8.00;99.90
39919;DHT22;25589;51.552;13.424;2023-12-20T11:41:26;8.20;99.90
39919;DHT22;25589;51.552;13.424;2023-12-20T11:43:55;7.90;99.90
39919;DHT22;25589;51.552;13.424;2023-12-20T11:46:22;8.00;99.90
39919;DHT22;25589;51.552;13.424;2023-12-20T11:48:48;8.00;99.90
39919;DHT22;25589;51.552;13.424;2023-12-20T11:51:14;8.00;99.90
39919;DHT22;25589;51.552;13.424;2023-12-20T11:53:40;8.00;99.90
39919;DHT22;25589;51.552;13.424;2023-12-20T11:56:08;8.00;99.90
39919;DHT22;25589;51.552;13.424;2023-12-20T11:58:34;8.00;99.90
39919;DHT22;25589;51.552;13.424;2023-12-20T12:01:00;7.90;99.90
39919;DHT22;25589;51.552;13.424;2023-12-20T12:03:28;7.90;99.90
39919;DHT22;25589;51.552;13.424;2023-12-20T12:05:53;8.20;99.90
39919;DHT22;25589;51.552;13.424;2023-12-20T12:08:19;8.20;99.90
39919;DHT22;25589;51.552;13.424;2023-12-20T12:10:45;8.00;99.90
39919;DHT22;25589;51.552;13.424;2023-12-20T12:13:11;8.00;99.90
39919;DHT22;25589;51.552;13.424;2023-12-20T12:15:37;8.90;99.90
39919;DHT22;25589;51.552;13.424;2023-12-20T12:18:03;8.40;99.90
39919;DHT22;25589;51.552;13.424;2023-12-20T12:20:29;8.60;99.90
39919;DHT22;25589;51.552;13.424;2023-12-20T12:23:03;8.00;99.90
39919;DHT22;25589;51.552;13.424;2023-12-20T12:25:31;8.00;99.90
39919;DHT22;25589;51.552;13.424;2023-12-20T12:28:00;8.00;99.90
39919;DHT22;25589;51.552;13.424;2023-12-20T12:30:26;7.80;99.90
39919;DHT22;25589;51.552;13.424;2023-12-20T12:32:52;8.00;99.90
39919;DHT22;25589;51.552;13.424;2023-12-20T12:35:19;8.00;99.90
39919;DHT22;25589;51.552;13.424;2023-12-20T12:37:45;7.80;99.90
39919;DHT22;25589;51.552;13.424;2023-12-20T12:40:12;8.00;99.90
39919;DHT22;25589;51.552;13.424;2023-12-20T12:42:39;8.40;99.90
39919;DHT22;25589;51.552;13.424;2023-12-20T12:47:33;8.70;99.90
39919;DHT22;25589;51.552;13.424;2023-12-20T12:49:59;7.70;99.90
39919;DHT22;25589;51.552;13.424;2023-12-20T12:52:24;8.00;99.90
39919;DHT22;25589;51.552;13.424;2023-12-20T12:54:50;7.90;99.90
39919;DHT22;25589;51.552;13.424;2023-12-20T12:57:16;8.20;99.90
39919;DHT22;25589;51.552;13.424;2023-12-20T12:59:43;7.60;99.90
39919;DHT22;25589;51.552;13.424;2023-12-20T13:02:11;8.00;99.90
39919;DHT22;25589;51.552;13.424;2023-12-20T13:04:37;7.90;99.90
39919;DHT22;25589;51.552;13.424;2023-12-20T13:07:03;7.90;99.90
39919;DHT22;25589;51.552;13.424;2023-12-20T13:09:28;8.20;99.90
39919;DHT22;25589;51.552;13.424;2023-12-20T13:11:54;7.90;99.90
39919;DHT22;25589;51.552;13.424;2023-12-20T13:14:20;7.90;99.90
39919;DHT22;25589;51.552;13.424;2023-12-20T13:16:45;7.90;99.90
39919;DHT22;25589;51.552;13.424;2023-12-20T13:19:11;7.90;99.90
39919;DHT22;25589;51.552;13.424;2023-12-20T13:21:37;7.90;99.90
39919;DHT22;25589;51.552;13.424;2023-12-20T13:24:03;7.90;99.90
39919;DHT22;25589;51.552;13.424;2023-12-20T13:26:28;8.20;99.90
39919;DHT22;25589;51.552;13.424;2023-12-20T13:28:54;8.60;99.90
39919;DHT22;25589;51.552;13.424;2023-12-20T13:31:20;7.90;99.90
39919;DHT22;25589;51.552;13.424;2023-12-20T13:33:46;8.20;99.90
39919;DHT22;25589;51.552;13.424;2023-12-20T13:36:12;8.00;99.90
39919;DHT22;25589;51.552;13.424;2023-12-20T13:38:38;8.70;99.90
39919;DHT22;25589;51.552;13.424;2023-12-20T13:41:04;7.90;99.90
39919;DHT22;25589;51.552;13.424;2023-12-20T13:43:31;7.90;99.90
39919;DHT22;25589;51.552;13.424;2023-12-20T13:46:01;7.90;99.90
39919;DHT22;25589;51.552;13.424;2023-12-20T13:48:27;7.90;99.90
39919;DHT22;25589;51.552;13.424;2023-12-20T13:50:52;8.60;99.90
39919;DHT22;25589;51.552;13.424;2023-12-20T13:53:20;7.10;99.90
39919;DHT22;25589;51.552;13.424;2023-12-20T13:55:46;7.90;99.90
39919;DHT22;25589;51.552;13.424;2023-12-20T13:58:11;9.00;99.90
39919;DHT22;25589;51.552;13.424;2023-12-20T14:00:37;7.50;99.90
39919;DHT22;25589;51.552;13.424;2023-12-20T14:03:04;8.00;99.90
39919;DHT22;25589;51.552;13.424;2023-12-20T14:05:30;7.90;99.90
39919;DHT22;25589;51.552;13.424;2023-12-20T14:07:56;7.10;99.90
39919;DHT22;25589;51.552;13.424;2023-12-20T14:10:23;7.90;99.90
39919;DHT22;25589;51.552;13.424;2023-12-20T14:12:53;8.40;99.90
39919;DHT22;25589;51.552;13.424;2023-12-20T14:15:20;8.00;99.90
39919;DHT22;25589;51.552;13.424;2023-12-20T14:17:46;8.10;99.90
39919;DHT22;25589;51.552;13.424;2023-12-20T14:20:12;8.80;99.90
39919;DHT22;25589;51.552;13.424;2023-12-20T14:22:38;7.40;99.90
39919;DHT22;25589;51.552;13.424;2023-12-20T14:25:04;8.60;99.90
39919;DHT22;25589;51.552;13.424;2023-12-20T14:27:31;7.90;99.90
39919;DHT22;25589;51.552;13.424;2023-12-20T14:29:57;8.00;99.90
39919;DHT22;25589;51.552;13.424;2023-12-20T14:34:52;8.00;99.90
39919;DHT22;25589;51.552;13.424;2023-12-20T14:37:17;7.90;99.90
39919;DHT22;25589;51.552;13.424;2023-12-20T14:39:43;8.20;99.90
39919;DHT22;25589;51.552;13.424;2023-12-20T14:42:09;7.90;99.90
39919;DHT22;25589;51.552;13.424;2023-12-20T14:44:38;7.80;99.90
39919;DHT22;25589;51.552;13.424;2023-12-20T14:47:04;7.50;99.90
39919;DHT22;25589;51.552;13.424;2023-12-20T14:49:30;8.30;99.90
39919;DHT22;25589;51.552;13.424;2023-12-20T14:51:56;7.60;99.90
39919;DHT22;25589;51.552;13.424;2023-12-20T14:54:22;7.70;99.90
39919;DHT22;25589;51.552;13.424;2023-12-20T14:56:47;7.80;99.90
39919;DHT22;25589;51.552;13.424;2023-12-20T15:01:39;7.70;99.90
39919;DHT22;25589;51.552;13.424;2023-12-20T15:04:09;7.50;99.90
39919;DHT22;25589;51.552;13.424;2023-12-20T15:06:35;7.50;99.90
39919;DHT22;25589;51.552;13.424;2023-12-20T15:09:01;7.40;99.90
39919;DHT22;25589;51.552;13.424;2023-12-20T15:11:28;7.50;99.90
39919;DHT22;25589;51.552;13.424;2023-12-20T15:13:54;7.50;99.90
39919;DHT22;25589;51.552;13.424;2023-12-20T15:16:23;7.40;99.90
39919;DHT22;25589;51.552;13.424;2023-12-20T15:18:49;7.30;99.90
39919;DHT22;25589;51.552;13.424;2023-12-20T15:21:16;7.30;99.90
39919;DHT22;25589;51.552;13.424;2023-12-20T15:23:41;7.20;99.90
39919;DHT22;25589;51.552;13.424;2023-12-20T15:26:21;7.10;99.90
39919;DHT22;25589;51.552;13.424;2023-12-20T15:28:46;5.30;99.90
39919;DHT22;25589;51.552;13.424;2023-12-20T15:31:12;7.00;99.90
39919;DHT22;25589;51.552;13.424;2023-12-20T15:33:39;7.30;99.90
39919;DHT22;25589;51.552;13.424;2023-12-20T15:36:05;6.90;99.90
39919;DHT22;25589;51.552;13.424;2023-12-20T15:38:31;6.80;99.90
39919;DHT22;25589;51.552;13.424;2023-12-20T15:40:56;7.50;99.90
39919;DHT22;25589;51.552;13.424;2023-12-20T15:43:22;5.90;99.90
39919;DHT22;25589;51.552;13.424;2023-12-20T15:45:48;6.60;99.90
39919;DHT22;25589;51.552;13.424;2023-12-20T15:48:13;6.50;99.90
39919;DHT22;25589;51.552;13.424;2023-12-20T15:50:43;6.50;99.90
39919;DHT22;25589;51.552;13.424;2023-12-20T15:53:09;7.40;99.90